Time;durP1;ratioP1;P1;durP2;ratioP2;P2;SDS_P1;SDS_P2;PMS_P1;PMS_P2;Temp;Humidity;BMP_temperature;BMP_pressure;BME280_temperature;BME280_humidity;BME280_pressure;Samples;Min_cycle;Max_cycle;Signal;HPM_P1;HPM_P2
2023/10/15 00:00:34;;;;;;;9.20;5.50;;;;;;;18.31;60.00;99753.08;105243;1256;64855;-58
2023/10/15 00:03:03;;;;;;;10.50;5.50;;;;;;;18.29;60.16;99753.34;105649;1257;61360;-57
2023/10/15 00:05:31;;;;;;;8.30;5.60;;;;;;;18.28;60.16;99751.15;105665;1253;63906;-57
2023/10/15 00:07:58;;;;;;;11.40;5.70;;;;;;;18.26;60.16;99753.59;105323;1255;60552;-57
2023/10/15 00:10:27;;;;;;;12.30;5.90;;;;;;;18.23;60.41;99754.83;105723;1260;60601;-57
2023/10/15 00:12:56;;;;;;;8.10;5.20;;;;;;;18.24;60.39;99752.63;105806;1254;64909;-56
2023/10/15 00:15:25;;;;;;;12.20;5.40;;;;;;;18.26;60.30;99748.88;105830;1255;61948;-57
2023/10/15 00:17:54;;;;;;;8.60;5.80;;;;;;;18.25;60.57;99745.50;105188;1259;62545;-57
2023/10/15 00:20:34;;;;;;;9.30;5.50;;;;;;;18.23;60.58;99741.02;105811;1255;60538;-57
2023/10/15 00:23:06;;;;;;;10.60;5.60;;;;;;;18.20;60.76;99742.54;105628;1259;60373;-58
2023/10/15 00:25:36;;;;;;;9.90;5.40;;;;;;;18.18;60.76;99737.32;105323;1259;65361;-54
2023/10/15 00:28:11;;;;;;;10.90;5.50;;;;;;;18.19;60.89;99740.23;105555;1253;61314;-54
2023/10/15 00:30:39;;;;;;;9.80;5.50;;;;;;;18.22;60.81;99736.54;105524;1254;63669;-57
2023/10/15 00:33:16;;;;;;;10.60;5.40;;;;;;;18.19;61.01;99734.84;105464;1254;60815;-57
2023/10/15 00:35:50;;;;;;;10.10;5.50;;;;;;;18.13;61.11;99734.35;105434;1253;60426;-57
2023/10/15 00:38:19;;;;;;;8.40;4.90;;;;;;;18.08;61.31;99732.66;105876;1257;64976;-57
2023/10/15 00:40:51;;;;;;;9.00;5.10;;;;;;;18.03;61.46;99733.80;105299;1254;61446;-57
2023/10/15 00:43:21;;;;;;;9.50;4.50;;;;;;;18.02;61.41;99731.45;105953;1255;62635;-57
2023/10/15 00:45:49;;;;;;;12.50;4.80;;;;;;;18.05;61.51;99738.11;105278;1256;60535;-57
2023/10/15 00:48:36;;;;;;;12.10;5.50;;;;;;;18.02;61.63;99734.15;105951;1255;60380;-58
2023/10/15 00:51:11;;;;;;;9.70;5.80;;;;;;;17.98;61.74;99732.14;105425;1257;64917;-58
2023/10/15 00:53:50;;;;;;;8.90;5.10;;;;;;;17.95;61.80;99732.59;105252;1256;61637;-56
2023/10/15 00:56:20;;;;;;;10.60;4.80;;;;;;;17.92;61.80;99734.20;105361;1255;63727;-57
2023/10/15 01:01:26;;;;;;;9.80;5.50;;;;;;;17.94;61.71;99738.45;105254;1259;60455;-57
2023/10/15 01:03:59;;;;;;;9.70;5.60;;;;;;;17.91;61.83;99741.27;105783;1254;63692;-57
2023/10/15 01:09:09;;;;;;;9.40;5.40;;;;;;;17.83;62.20;99739.98;105645;1256;63864;-59
2023/10/15 01:11:50;;;;;;;8.60;4.70;;;;;;;17.77;62.22;99739.20;105446;1259;60639;-51
2023/10/15 01:17:04;;;;;;;10.80;5.10;;;;;;;17.75;62.23;99732.37;105282;1260;64866;-55
2023/10/15 01:19:33;;;;;;;9.40;5.60;;;;;;;17.72;62.38;99731.70;105398;1257;69974;-56
2023/10/15 01:22:17;;;;;;;9.80;4.90;;;;;;;17.66;62.64;99734.34;105606;1258;62474;-55
2023/10/15 01:24:53;;;;;;;9.20;5.80;;;;;;;17.60;62.71;99730.95;106034;1253;60932;-55
2023/10/15 01:27:30;;;;;;;7.50;4.80;;;;;;;17.56;62.84;99728.23;105316;1255;60468;-56
2023/10/15 01:29:59;;;;;;;7.50;4.60;;;;;;;17.56;62.92;99726.43;105273;1259;65042;-56
2023/10/15 01:32:30;;;;;;;10.30;5.00;;;;;;;17.57;62.94;99725.30;105737;1259;60441;-56
2023/10/15 01:35:00;;;;;;;10.20;6.00;;;;;;;17.56;63.09;99724.48;105697;1254;63736;-55
2023/10/15 01:37:30;;;;;;;8.40;5.40;;;;;;;17.55;63.02;99722.56;105785;1253;60540;-54
2023/10/15 01:40:15;;;;;;;9.20;5.90;;;;;;;17.52;63.14;99722.86;105695;1255;60633;-55
2023/10/15 01:42:46;;;;;;;10.50;5.00;;;;;;;17.50;63.08;99716.74;105320;1260;64954;-55
2023/10/15 01:45:16;;;;;;;9.20;4.60;;;;;;;17.50;62.98;99716.21;105313;1256;61664;-56
2023/10/15 01:50:23;;;;;;;11.60;5.20;;;;;;;17.48;63.14;99717.85;105298;1256;60625;-53
2023/10/15 01:53:01;;;;;;;11.60;5.70;;;;;;;17.43;63.17;99714.85;105828;1257;60493;-55
2023/10/15 01:55:30;;;;;;;9.30;5.40;;;;;;;17.39;63.33;99711.39;105605;1256;65124;-56
2023/10/15 01:58:01;;;;;;;8.10;5.20;;;;;;;17.35;63.37;99710.96;105620;1259;60422;-54
2023/10/15 02:03:10;;;;;;;7.40;4.30;;;;;;;17.36;63.47;99713.52;105478;1256;60672;-56
2023/10/15 02:05:42;;;;;;;9.80;5.20;;;;;;;17.36;63.46;99713.81;105352;1256;60485;-56
2023/10/15 02:08:22;;;;;;;8.40;5.20;;;;;;;17.35;63.46;99710.73;105243;1254;65275;-57
2023/10/15 02:10:49;;;;;;;11.00;5.30;;;;;;;17.31;63.33;99709.77;105818;1259;61923;-55
2023/10/15 02:13:19;;;;;;;11.60;5.70;;;;;;;17.27;63.56;99704.96;105260;1256;63720;-55
2023/10/15 02:15:49;;;;;;;7.40;4.40;;;;;;;17.22;63.59;99700.36;105980;1253;61262;-56
2023/10/15 02:18:19;;;;;;;10.90;4.80;;;;;;;17.21;63.57;99700.66;105375;1259;60912;-55
2023/10/15 02:23:21;;;;;;;9.60;4.80;;;;;;;17.23;63.84;99704.67;105339;1253;61331;-54
2023/10/15 02:25:58;;;;;;;10.50;5.30;;;;;;;17.25;63.67;99700.89;105941;1259;62532;-55
2023/10/15 02:28:35;;;;;;;9.50;4.70;;;;;;;17.24;63.78;99698.35;105681;1259;60527;-55
2023/10/15 02:33:34;;;;;;;11.50;4.90;;;;;;;17.21;63.69;99694.65;105294;1259;65120;-55
2023/10/15 02:36:09;;;;;;;9.00;4.30;;;;;;;17.24;63.73;99695.23;105519;1259;60511;-56
2023/10/15 02:38:38;;;;;;;8.40;4.60;;;;;;;17.27;63.61;99698.88;105449;1259;62452;-57
2023/10/15 02:41:06;;;;;;;6.90;4.70;;;;;;;17.29;63.65;99697.66;105454;1256;60435;-56
2023/10/15 02:43:40;;;;;;;9.00;5.30;;;;;;;17.29;63.62;99691.78;105546;1259;60513;-56
2023/10/15 02:47:07;;;;;;;9.80;5.90;;;;;;;17.26;63.55;99691.63;105289;1259;65362;-58
2023/10/15 02:48:59;;;;;;;6.90;4.20;;;;;;;17.23;63.70;99694.27;105153;1253;70271;-56
2023/10/15 02:51:27;;;;;;;7.60;4.70;;;;;;;17.25;63.45;99692.83;105407;1258;64007;-55
2023/10/15 02:54:09;;;;;;;8.20;4.70;;;;;;;17.28;63.48;99686.95;105280;1259;60562;-56
2023/10/15 02:56:37;;;;;;;9.40;5.30;;;;;;;17.29;63.50;99686.30;105463;1260;60375;-54
2023/10/15 02:59:05;;;;;;;10.10;5.00;;;;;;;17.26;63.41;99685.16;105351;1259;65381;-55
2023/10/15 03:01:32;;;;;;;8.90;5.10;;;;;;;17.23;63.45;99686.86;105269;1259;69029;-56
2023/10/15 03:04:07;;;;;;;9.20;4.80;;;;;;;17.17;63.52;99686.98;105710;1258;62514;-56
2023/10/15 03:06:41;;;;;;;6.40;3.80;;;;;;;17.14;63.69;99689.45;105528;1254;60568;-56
2023/10/15 03:09:11;;;;;;;8.80;4.60;;;;;;;17.16;63.72;99687.13;105309;1262;60429;-56
2023/10/15 03:11:39;;;;;;;11.10;4.40;;;;;;;17.14;63.73;99684.46;105444;1253;66136;-56
2023/10/15 03:14:07;;;;;;;7.80;4.70;;;;;;;17.11;63.89;99688.95;105275;1258;72939;-54
2023/10/15 03:16:35;;;;;;;7.60;4.90;;;;;;;17.06;63.95;99688.30;105291;1256;63758;-54
2023/10/15 03:19:17;;;;;;;10.10;4.40;;;;;;;17.00;64.05;99687.94;105568;1259;60559;-56
2023/10/15 03:21:45;;;;;;;9.40;4.70;;;;;;;17.01;64.01;99688.40;105429;1255;60597;-55
2023/10/15 03:24:17;;;;;;;11.40;5.20;;;;;;;17.02;64.00;99684.16;105345;1259;64982;-56
2023/10/15 03:26:48;;;;;;;7.60;5.20;;;;;;;17.01;63.95;99680.71;105321;1256;61573;-57
2023/10/15 03:29:15;;;;;;;11.00;5.60;;;;;;;16.99;63.93;99671.56;105424;1259;62506;-56
2023/10/15 03:31:48;;;;;;;8.60;4.80;;;;;;;16.93;64.04;99668.00;105294;1256;60552;-56
2023/10/15 03:34:21;;;;;;;6.70;4.30;;;;;;;16.86;64.32;99668.51;105359;1259;60534;-56
2023/10/15 03:36:51;;;;;;;7.70;4.70;;;;;;;16.83;64.32;99667.70;105848;1254;63724;-56
2023/10/15 03:44:49;;;;;;;11.50;5.40;;;;;;;16.77;64.41;99667.92;105307;1256;60570;-57
2023/10/15 03:47:22;;;;;;;9.50;5.00;;;;;;;16.71;64.60;99667.59;105266;1259;60473;-56
2023/10/15 03:49:55;;;;;;;9.60;5.40;;;;;;;16.66;64.81;99667.31;105927;1253;64888;-57
2023/10/15 03:52:23;;;;;;;7.30;5.20;;;;;;;16.60;64.91;99664.39;105999;1259;61312;-56
2023/10/15 03:54:51;;;;;;;8.90;4.80;;;;;;;16.61;64.90;99661.71;105244;1256;63767;-54
2023/10/15 03:57:23;;;;;;;10.70;4.30;;;;;;;16.62;64.80;99663.63;105890;1253;60571;-54
2023/10/15 03:59:53;;;;;;;8.20;4.90;;;;;;;16.62;64.86;99663.45;105944;1253;60532;-56
2023/10/15 04:02:54;;;;;;;6.50;4.70;;;;;;;16.62;65.04;99660.96;105329;1258;65002;-58
2023/10/15 04:05:27;;;;;;;7.40;4.90;;;;;;;16.61;65.11;99657.96;105329;1253;61412;-57
2023/10/15 04:07:55;;;;;;;9.60;5.00;;;;;;;16.59;65.13;99657.67;105265;1255;64224;-57
2023/10/15 04:10:23;;;;;;;10.90;4.70;;;;;;;16.57;65.22;99658.79;105294;1259;60596;-56
2023/10/15 04:12:51;;;;;;;8.80;3.90;;;;;;;16.58;65.12;99657.21;105810;1253;60339;-57
2023/10/15 04:15:21;;;;;;;7.50;4.80;;;;;;;16.59;65.00;99659.92;105873;1253;65023;-55
2023/10/15 04:17:51;;;;;;;11.10;5.40;;;;;;;16.58;64.98;99668.80;106043;1253;61292;-56
2023/10/15 04:20:40;;;;;;;9.10;4.80;;;;;;;16.52;65.15;99670.65;105342;1259;63719;-56
2023/10/15 04:23:21;;;;;;;7.40;5.30;;;;;;;16.49;65.32;99673.19;105459;1257;60432;-56
2023/10/15 04:25:48;;;;;;;7.80;4.80;;;;;;;16.46;65.55;99671.93;105221;1260;60397;-54
2023/10/15 04:28:19;;;;;;;8.50;4.70;;;;;;;16.42;65.63;99665.25;105238;1253;63739;-56
2023/10/15 04:30:46;;;;;;;9.10;4.60;;;;;;;16.42;65.67;99660.50;105335;1259;60361;-54
2023/10/15 04:33:14;;;;;;;7.60;4.70;;;;;;;16.43;65.62;99656.61;105303;1259;63744;-57
2023/10/15 04:35:41;;;;;;;9.30;5.10;;;;;;;16.44;65.58;99657.73;105391;1253;60438;-57
2023/10/15 04:38:15;;;;;;;8.20;5.20;;;;;;;16.43;65.75;99652.19;105316;1258;60364;-55
2023/10/15 04:41:03;;;;;;;10.10;4.60;;;;;;;16.41;65.92;99651.09;105399;1258;63817;-58
2023/10/15 04:43:41;;;;;;;8.60;5.10;;;;;;;16.38;66.03;99652.35;105283;1259;61312;-63
2023/10/15 04:46:08;;;;;;;9.10;5.00;;;;;;;16.34;65.84;99656.52;105384;1257;64238;-58
2023/10/15 04:48:39;;;;;;;9.20;5.40;;;;;;;16.31;65.88;99660.15;105263;1258;60375;-58
2023/10/15 04:51:13;;;;;;;8.70;5.00;;;;;;;16.31;66.13;99662.00;105377;1256;60661;-57
2023/10/15 04:53:50;;;;;;;7.90;4.90;;;;;;;16.32;66.21;99664.86;105348;1260;65415;-58
2023/10/15 04:56:21;;;;;;;8.60;5.10;;;;;;;16.30;66.47;99666.67;106072;1255;60645;-58
2023/10/15 04:58:49;;;;;;;9.00;5.00;;;;;;;16.27;66.44;99668.24;105314;1259;63817;-59
2023/10/15 05:01:17;;;;;;;8.50;4.80;;;;;;;16.25;66.51;99668.30;105308;1259;60569;-58
2023/10/15 05:03:45;;;;;;;7.40;4.30;;;;;;;16.28;66.52;99667.41;105926;1260;60448;-59
2023/10/15 05:06:13;;;;;;;11.60;4.60;;;;;;;16.32;66.50;99666.83;105412;1254;65453;-59
2023/10/15 05:08:42;;;;;;;12.00;4.90;;;;;;;16.34;66.51;99670.30;105257;1253;61318;-68
2023/10/15 05:11:09;;;;;;;10.10;5.70;;;;;;;16.34;66.67;99671.16;105371;1257;64424;-67
2023/10/15 05:13:37;;;;;;;10.50;5.60;;;;;;;16.32;66.63;99669.58;105413;1254;60658;-64
2023/10/15 05:16:05;;;;;;;8.90;4.90;;;;;;;16.31;66.80;99669.39;105296;1259;60426;-49
2023/10/15 05:18:32;;;;;;;9.50;4.70;;;;;;;16.33;66.78;99668.64;105340;1259;64865;-49
2023/10/15 05:21:03;;;;;;;9.60;5.00;;;;;;;16.38;66.68;99667.17;105589;1260;61383;-48
2023/10/15 05:23:30;;;;;;;7.80;5.00;;;;;;;16.41;66.71;99666.42;105483;1259;63748;-48
2023/10/15 05:25:58;;;;;;;9.60;5.60;;;;;;;16.42;66.71;99666.52;105678;1258;60403;-50
2023/10/15 05:28:26;;;;;;;7.70;5.20;;;;;;;16.41;66.67;99670.01;105311;1259;60414;-48
2023/10/15 05:30:57;;;;;;;11.00;5.10;;;;;;;16.39;66.78;99674.14;105402;1254;64990;-51
2023/10/15 05:33:25;;;;;;;9.70;5.20;;;;;;;16.41;66.90;99677.27;105768;1258;60619;-51
2023/10/15 05:35:55;;;;;;;8.70;5.10;;;;;;;16.46;66.78;99677.96;105388;1257;63748;-50
2023/10/15 05:38:22;;;;;;;7.50;5.00;;;;;;;16.49;66.76;99683.34;105823;1259;60628;-49
2023/10/15 05:40:50;;;;;;;10.50;5.60;;;;;;;16.50;66.69;99683.15;106053;1254;60520;-50
2023/10/15 05:43:18;;;;;;;9.70;5.00;;;;;;;16.50;66.88;99683.31;105661;1261;63781;-49
2023/10/15 05:45:47;;;;;;;9.60;5.20;;;;;;;16.50;67.00;99689.95;105394;1253;61385;-50
2023/10/15 05:48:17;;;;;;;8.30;5.00;;;;;;;16.57;66.67;99692.08;105368;1256;63887;-51
2023/10/15 05:50:49;;;;;;;11.90;5.50;;;;;;;16.63;66.59;99691.17;106106;1258;60535;-47
2023/10/15 05:53:16;;;;;;;10.30;6.10;;;;;;;16.66;66.53;99693.69;105358;1258;60405;-49
2023/10/15 05:55:44;;;;;;;9.40;6.20;;;;;;;16.65;66.62;99695.90;105199;1253;64896;-49
2023/10/15 05:58:12;;;;;;;9.50;5.60;;;;;;;16.67;66.59;99692.30;105013;1259;69550;-48
2023/10/15 06:00:40;;;;;;;7.00;4.90;;;;;;;16.71;66.48;99694.16;104939;1262;62485;-51
2023/10/15 06:03:08;;;;;;;9.30;5.50;;;;;;;16.78;66.31;99697.28;105031;1259;60633;-48
2023/10/15 06:05:37;;;;;;;12.70;6.00;;;;;;;16.80;66.18;99699.79;105166;1256;60461;-51
2023/10/15 06:08:05;;;;;;;11.10;5.80;;;;;;;16.78;66.17;99700.47;104995;1259;63842;-52
2023/10/15 06:10:34;;;;;;;9.40;6.20;;;;;;;16.75;66.24;99698.63;105319;1256;61375;-50
2023/10/15 06:13:01;;;;;;;11.80;5.60;;;;;;;16.75;66.22;99696.52;105304;1255;73120;-50
2023/10/15 06:15:29;;;;;;;10.20;5.50;;;;;;;16.79;66.20;99693.20;105311;1260;61238;-49
2023/10/15 06:17:58;;;;;;;7.50;4.80;;;;;;;16.84;66.12;99689.41;104898;1262;60325;-50
2023/10/15 06:20:26;;;;;;;11.60;5.90;;;;;;;16.91;66.04;99694.14;105510;1259;65456;-50
2023/10/15 06:23:00;;;;;;;8.30;5.40;;;;;;;16.96;65.88;99697.31;105175;1253;61396;-51
2023/10/15 06:25:28;;;;;;;10.00;6.60;;;;;;;16.99;65.92;99700.99;105112;1259;63773;-52
2023/10/15 06:27:56;;;;;;;11.60;6.60;;;;;;;17.02;65.78;99697.86;105655;1257;60565;-53
2023/10/15 06:30:26;;;;;;;10.80;6.20;;;;;;;17.06;65.57;99698.50;105777;1256;60431;-51
2023/10/15 06:32:54;;;;;;;11.30;6.60;;;;;;;17.14;65.42;99705.23;105809;1255;64907;-53
2023/10/15 06:35:23;;;;;;;12.90;6.70;;;;;;;17.22;65.17;99706.95;105115;1256;61429;-52
2023/10/15 06:37:55;;;;;;;12.70;7.00;;;;;;;17.26;64.91;99712.09;105829;1260;64293;-52
2023/10/15 06:40:28;;;;;;;12.30;7.60;;;;;;;17.28;64.70;99716.71;105877;1259;60530;-49
2023/10/15 06:43:00;;;;;;;15.70;8.20;;;;;;;17.28;64.60;99720.95;105751;1259;60459;-50
2023/10/15 06:45:29;;;;;;;15.40;8.40;;;;;;;17.28;64.52;99719.22;105592;1258;65037;-49
2023/10/15 06:47:57;;;;;;;12.60;7.50;;;;;;;17.31;64.19;99720.27;105795;1256;61382;-49
2023/10/15 06:50:25;;;;;;;14.60;8.80;;;;;;;17.36;63.84;99719.88;105315;1259;62521;-49
2023/10/15 06:52:54;;;;;;;11.20;7.90;;;;;;;17.41;63.80;99718.58;105760;1254;60636;-51
2023/10/15 06:55:22;;;;;;;15.80;9.20;;;;;;;17.43;63.85;99715.95;105829;1256;60479;-48
2023/10/15 06:57:50;;;;;;;15.10;9.00;;;;;;;17.49;63.56;99714.55;104959;1258;352059;-48
2023/10/15 07:01:48;;;;;;;13.70;9.60;;;;;;;17.40;63.62;99708.46;102636;1290;600037;-49
2023/10/15 07:04:15;;;;;;;13.30;8.10;;;;;;;17.67;62.53;99710.16;104541;1266;59189;-50
2023/10/15 07:06:43;;;;;;;16.10;8.60;;;;;;;17.76;62.15;99708.47;104555;1266;59359;-50
2023/10/15 07:09:13;;;;;;;15.60;8.10;;;;;;;17.80;62.18;99704.77;104497;1272;63319;-49
2023/10/15 07:11:41;;;;;;;14.30;9.40;;;;;;;17.84;62.09;99713.20;104515;1267;61335;-48
2023/10/15 07:14:08;;;;;;;17.10;9.80;;;;;;;17.86;61.79;99716.20;104300;1267;224362;-49
2023/10/15 07:16:40;;;;;;;17.00;9.10;;;;;;;17.85;61.67;99717.67;104652;1264;59839;-49
2023/10/15 07:19:08;;;;;;;15.50;8.20;;;;;;;17.87;61.40;99720.63;104820;1266;59342;-47
2023/10/15 07:21:36;;;;;;;13.50;8.60;;;;;;;17.88;61.51;99718.39;104674;1263;63358;-49
2023/10/15 07:24:05;;;;;;;16.10;10.00;;;;;;;17.88;61.60;99717.20;104710;1264;61375;-49
2023/10/15 07:26:32;;;;;;;13.60;9.20;;;;;;;17.90;61.77;99716.16;104966;1267;62539;-49
2023/10/15 07:29:00;;;;;;;14.50;8.90;;;;;;;17.94;61.57;99717.52;104871;1263;59743;-49
2023/10/15 07:31:28;;;;;;;16.30;9.60;;;;;;;17.96;61.51;99715.77;104811;1263;59564;-50
2023/10/15 07:33:55;;;;;;;19.20;10.10;;;;;;;17.95;61.56;99715.56;107820;1260;62906;-52
2023/10/15 07:36:23;;;;;;;16.00;9.20;;;;;;;18.02;61.44;99714.08;104847;1263;60116;-49
2023/10/15 07:38:50;;;;;;;13.20;8.40;;;;;;;18.08;61.04;99713.86;104824;1263;63761;-50
2023/10/15 07:41:18;;;;;;;13.30;8.80;;;;;;;18.11;61.12;99713.20;104895;1266;59743;-50
2023/10/15 07:43:46;;;;;;;13.40;9.30;;;;;;;18.13;61.08;99713.19;104930;1266;59774;-48
2023/10/15 07:46:14;;;;;;;12.50;9.10;;;;;;;18.20;61.00;99712.56;105350;1254;64094;-48
2023/10/15 07:48:44;;;;;;;14.90;9.30;;;;;;;18.24;60.54;99715.92;105354;1254;62605;-49
2023/10/15 07:51:11;;;;;;;13.10;8.50;;;;;;;18.23;60.59;99716.77;105351;1256;62605;-49
2023/10/15 07:53:39;;;;;;;12.80;8.90;;;;;;;18.21;60.35;99718.27;105319;1254;59778;-51
2023/10/15 07:56:06;;;;;;;14.00;8.40;;;;;;;18.23;60.29;99720.54;105508;1254;59670;-53
2023/10/15 07:58:35;;;;;;;15.30;9.90;;;;;;;18.28;60.14;99721.52;105552;1254;64143;-52
2023/10/15 08:01:04;;;;;;;12.50;7.80;;;;;;;18.30;60.16;99723.20;106320;1254;60300;-53
2023/10/15 08:03:39;;;;;;;13.80;8.60;;;;;;;18.32;60.21;99728.45;105518;1254;62478;-53
2023/10/15 08:06:07;;;;;;;12.40;9.00;;;;;;;18.33;60.07;99728.41;105584;1259;59645;-53
2023/10/15 08:08:35;;;;;;;15.00;8.70;;;;;;;18.32;59.87;99729.14;105617;1254;59688;-51
2023/10/15 08:11:03;;;;;;;13.80;8.90;;;;;;;18.33;59.83;99732.06;105637;1254;74976;-52
2023/10/15 08:13:31;;;;;;;14.00;8.80;;;;;;;18.30;59.82;99731.73;105386;1254;61271;-50
2023/10/15 08:15:58;;;;;;;13.30;7.50;;;;;;;18.30;59.73;99731.19;105521;1255;62686;-51
2023/10/15 08:18:26;;;;;;;15.50;8.50;;;;;;;18.35;59.55;99733.28;105373;1254;59731;-51
2023/10/15 08:20:54;;;;;;;12.00;8.20;;;;;;;18.37;59.33;99733.38;105831;1258;59740;-53
2023/10/15 08:23:22;;;;;;;13.40;8.90;;;;;;;18.37;59.25;99733.02;105941;1259;64084;-51
2023/10/15 08:25:50;;;;;;;14.40;9.20;;;;;;;18.31;59.22;99736.85;105266;1254;62254;-51
2023/10/15 08:28:20;;;;;;;15.60;9.20;;;;;;;18.22;59.40;99738.75;106065;1254;63732;-49
2023/10/15 08:30:53;;;;;;;18.20;9.60;;;;;;;18.17;59.54;99740.80;106773;1259;59746;-52
2023/10/15 08:33:20;;;;;;;11.30;8.80;;;;;;;18.16;59.77;99742.58;105932;1259;59589;-53
2023/10/15 08:35:49;;;;;;;12.00;8.20;;;;;;;18.17;59.68;99739.20;105367;1259;64338;-51
2023/10/15 08:38:17;;;;;;;13.60;9.10;;;;;;;18.19;59.79;99728.98;105373;1259;60286;-47
2023/10/15 08:40:48;;;;;;;12.10;8.50;;;;;;;18.20;59.75;99719.98;106011;1254;62533;-47
2023/10/15 08:43:21;;;;;;;14.00;10.10;;;;;;;18.19;59.82;99722.75;105424;1254;59739;-46
2023/10/15 08:45:49;;;;;;;15.00;10.40;;;;;;;18.20;59.94;99732.95;106017;1259;59565;-46
2023/10/15 08:48:17;;;;;;;18.40;10.40;;;;;;;18.25;59.77;99738.91;105384;1254;64063;-57
2023/10/15 08:50:45;;;;;;;18.60;8.70;;;;;;;18.28;59.63;99745.27;105363;1254;61355;-57
2023/10/15 08:53:16;;;;;;;13.30;8.40;;;;;;;18.29;59.52;99745.42;105493;1254;63766;-57
2023/10/15 08:55:44;;;;;;;12.30;7.30;;;;;;;18.29;59.42;99749.28;105325;1254;59678;-57
2023/10/15 08:58:11;;;;;;;13.70;8.20;;;;;;;18.29;59.45;99752.14;105465;1254;59959;-56
2023/10/15 09:00:39;;;;;;;10.90;7.90;;;;;;;18.26;59.54;99755.39;105557;1251;64169;-56
2023/10/15 09:03:13;;;;;;;14.50;8.80;;;;;;;18.22;59.72;99755.05;105337;1251;61503;-57
2023/10/15 09:05:42;;;;;;;14.30;8.50;;;;;;;18.20;59.63;99753.08;105628;1254;63669;-58
2023/10/15 09:08:12;;;;;;;12.00;8.30;;;;;;;18.18;59.68;99752.19;105495;1257;59616;-59
2023/10/15 09:10:40;;;;;;;16.10;8.80;;;;;;;18.15;59.81;99754.73;105411;1259;59580;-55
2023/10/15 09:13:15;;;;;;;14.00;8.00;;;;;;;18.15;59.93;99757.06;105539;1255;64565;-58
2023/10/15 09:15:52;;;;;;;;;;;;;;;18.18;59.80;99758.63;105463;1254;61314;-58
2023/10/15 09:18:20;;;;;;;14.50;8.80;;;;;;;18.25;59.83;99756.31;106012;1254;62563;-58
2023/10/15 09:20:51;;;;;;;14.00;8.30;;;;;;;18.30;59.55;99758.75;105452;1254;59843;-59
2023/10/15 09:23:23;;;;;;;13.00;8.80;;;;;;;18.28;59.56;99758.94;106046;1254;59778;-58
2023/10/15 09:25:57;;;;;;;15.80;8.70;;;;;;;18.28;59.60;99760.65;105458;1254;64128;-56
2023/10/15 09:28:28;;;;;;;12.50;8.50;;;;;;;18.29;59.60;99763.83;105363;1254;61533;-59
2023/10/15 09:31:03;;;;;;;19.50;9.10;;;;;;;18.28;59.44;99773.33;105388;1254;63677;-57
2023/10/15 09:33:32;;;;;;;16.30;10.00;;;;;;;18.21;59.68;99771.73;105632;1256;59819;-57
2023/10/15 09:36:02;;;;;;;13.00;8.80;;;;;;;18.18;59.80;99772.59;105741;1259;59697;-56
2023/10/15 09:38:36;;;;;;;12.50;8.40;;;;;;;18.19;59.82;99768.39;105663;1259;64161;-57
2023/10/15 09:41:05;;;;;;;19.80;10.20;;;;;;;18.23;59.84;99765.47;105542;1254;61381;-56
2023/10/15 09:43:36;;;;;;;13.80;10.30;;;;;;;18.26;59.88;99769.41;105721;1255;63736;-58
2023/10/15 09:46:09;;;;;;;17.50;10.40;;;;;;;18.23;59.83;99768.80;105355;1254;59856;-57
2023/10/15 09:48:37;;;;;;;15.90;10.90;;;;;;;18.20;59.98;99767.53;105559;1259;59951;-58
2023/10/15 09:51:07;;;;;;;18.00;11.00;;;;;;;18.25;59.93;99766.97;105376;1253;64072;-54
2023/10/15 09:53:36;;;;;;;16.40;9.80;;;;;;;18.29;59.86;99770.13;105709;1254;60213;-58
2023/10/15 09:56:07;;;;;;;16.50;9.80;;;;;;;18.22;60.04;99769.48;105675;1254;63822;-57
2023/10/15 09:58:35;;;;;;;13.10;9.20;;;;;;;18.27;60.23;99770.31;105541;1261;59584;-58
2023/10/15 10:01:28;;;;;;;14.40;9.40;;;;;;;18.32;60.18;99769.30;105301;1259;59708;-56
2023/10/15 10:04:06;;;;;;;16.40;10.10;;;;;;;18.33;60.22;99771.15;105344;1254;62995;-55
2023/10/15 10:06:47;;;;;;;15.00;9.30;;;;;;;18.30;60.35;99766.16;105796;1254;61354;-56
2023/10/15 10:09:36;;;;;;;16.40;9.70;;;;;;;18.24;60.51;99767.45;105614;1254;63672;-55
2023/10/15 10:12:16;;;;;;;14.80;10.10;;;;;;;18.20;60.83;99770.61;105593;1254;59623;-55
2023/10/15 10:14:53;;;;;;;12.30;9.20;;;;;;;18.24;60.78;99770.81;105423;1254;59740;-55
2023/10/15 10:17:21;;;;;;;14.70;7.70;;;;;;;18.33;60.59;99766.85;106045;1253;64686;-56
2023/10/15 10:19:52;;;;;;;10.30;7.30;;;;;;;18.41;60.29;99765.30;106050;1253;61489;-55
2023/10/15 10:22:23;;;;;;;11.70;9.20;;;;;;;18.42;60.06;99766.33;105951;1254;62602;-56
2023/10/15 10:24:50;;;;;;;11.80;7.70;;;;;;;18.42;59.93;99768.67;105880;1259;61140;-55
2023/10/15 10:27:18;;;;;;;9.30;6.70;;;;;;;18.43;59.83;99767.00;105279;1261;60012;-55
2023/10/15 10:29:52;;;;;;;10.80;7.00;;;;;;;18.42;59.94;99768.13;106034;1258;64106;-57
2023/10/15 10:32:21;;;;;;;10.90;6.10;;;;;;;18.46;59.73;99769.04;106033;1259;61807;-55
2023/10/15 10:35:18;;;;;;;10.80;7.30;;;;;;;18.51;59.58;99769.55;105967;1254;64338;-56
2023/10/15 10:38:10;;;;;;;17.30;7.00;;;;;;;18.48;59.46;99770.54;105454;1254;59734;-56
2023/10/15 10:40:54;;;;;;;9.90;6.40;;;;;;;18.42;59.46;99775.56;105578;1253;59720;-57
2023/10/15 10:43:26;;;;;;;10.30;6.80;;;;;;;18.35;59.65;99782.28;105958;1254;64062;-56
2023/10/15 10:45:55;;;;;;;11.10;7.20;;;;;;;18.25;59.60;99779.92;105421;1254;60098;-58
2023/10/15 10:48:24;;;;;;;8.60;5.30;;;;;;;18.22;59.73;99778.04;105801;1254;63874;-55
2023/10/15 10:51:21;;;;;;;9.60;5.80;;;;;;;18.24;60.03;99779.71;105854;1254;59708;-56
2023/10/15 10:53:58;;;;;;;11.00;6.00;;;;;;;18.27;59.88;99776.70;105380;1259;59734;-58
2023/10/15 10:56:41;;;;;;;9.50;6.00;;;;;;;18.26;59.72;99778.45;105802;1259;64062;-60
2023/10/15 10:59:09;;;;;;;8.30;6.20;;;;;;;18.20;59.48;99779.81;105485;1260;61358;-64
2023/10/15 11:01:39;;;;;;;9.30;6.50;;;;;;;18.14;59.47;99783.40;105495;1254;63730;-61
2023/10/15 11:04:07;;;;;;;10.70;5.60;;;;;;;18.11;59.42;99786.84;105552;1260;59688;-64
2023/10/15 11:06:54;;;;;;;9.70;5.80;;;;;;;18.11;59.61;99783.94;105685;1255;59791;-61
2023/10/15 11:09:25;;;;;;;10.30;6.20;;;;;;;18.11;59.47;99783.55;105295;1259;64077;-61
2023/10/15 11:11:53;;;;;;;10.20;5.70;;;;;;;18.07;59.39;99782.87;105963;1255;61378;-60
2023/10/15 11:14:25;;;;;;;10.40;6.40;;;;;;;18.01;59.40;99785.10;105920;1260;63761;-60
2023/10/15 11:16:56;;;;;;;10.00;6.40;;;;;;;17.98;59.65;99781.94;105973;1252;60532;-60
2023/10/15 11:19:32;;;;;;;9.60;5.60;;;;;;;17.92;59.56;99783.88;105967;1258;60460;-58
2023/10/15 11:22:01;;;;;;;10.60;5.70;;;;;;;17.89;59.69;99779.83;105755;1254;64934;-57
2023/10/15 11:24:30;;;;;;;11.60;5.20;;;;;;;17.94;59.56;99778.86;105818;1257;62321;-60
2023/10/15 11:27:00;;;;;;;8.70;5.60;;;;;;;17.98;59.51;99779.89;105781;1254;64239;-57
2023/10/15 11:29:28;;;;;;;9.30;6.10;;;;;;;17.99;59.44;99778.23;105337;1254;60533;-59
2023/10/15 11:32:00;;;;;;;10.90;6.10;;;;;;;18.01;59.26;99782.30;105302;1253;60954;-59
2023/10/15 11:34:33;;;;;;;10.80;6.20;;;;;;;18.00;59.12;99785.25;105740;1254;66892;-49
2023/10/15 11:37:02;;;;;;;10.00;6.30;;;;;;;17.96;59.20;99783.80;105380;1254;62384;-59
2023/10/15 11:39:38;;;;;;;9.50;6.50;;;;;;;17.95;59.36;99782.02;105884;1254;63730;-60
2023/10/15 11:42:07;;;;;;;9.30;6.10;;;;;;;17.96;59.39;99782.02;105580;1257;60556;-58
2023/10/15 11:44:42;;;;;;;9.90;5.90;;;;;;;17.94;59.42;99782.09;105472;1254;60643;-59
2023/10/15 11:47:15;;;;;;;7.80;5.20;;;;;;;17.91;59.08;99784.13;105445;1254;63644;-60
2023/10/15 11:49:44;;;;;;;10.60;5.00;;;;;;;17.85;58.78;99794.85;105406;1254;61367;-60
2023/10/15 11:52:18;;;;;;;8.50;5.00;;;;;;;17.79;58.89;99797.17;105247;1258;63685;-60
2023/10/15 11:54:50;;;;;;;6.40;3.70;;;;;;;17.72;58.44;99791.88;105452;1259;60543;-60
2023/10/15 11:57:22;;;;;;;7.30;3.80;;;;;;;17.63;58.40;99784.48;105426;1257;60560;-59
2023/10/15 11:59:51;;;;;;;7.40;3.40;;;;;;;17.60;58.15;99783.66;106005;1254;64953;-60
2023/10/15 12:02:27;;;;;;;7.70;3.90;;;;;;;17.56;58.13;99780.70;105319;1255;60389;-60